sensor_id;sensor_type;location;lat;lon;timestamp;P1;durP1;ratioP1;P2;durP2;ratioP2
46036;SDS011;31769;49.304;8.428;2023-04-03T00:00:37;3.67;;;3.38;;
46036;SDS011;31769;49.304;8.428;2023-04-03T00:03:38;3.80;;;3.42;;
46036;SDS011;31769;49.304;8.428;2023-04-03T00:06:39;3.90;;;3.20;;
46036;SDS011;31769;49.304;8.428;2023-04-03T00:09:39;5.30;;;3.30;;
46036;SDS011;31769;49.304;8.428;2023-04-03T00:12:40;6.88;;;4.43;;
46036;SDS011;31769;49.304;8.428;2023-04-03T00:15:41;5.68;;;4.50;;
46036;SDS011;31769;49.304;8.428;2023-04-03T00:18:42;4.68;;;4.20;;
46036;SDS011;31769;49.304;8.428;2023-04-03T00:21:43;3.83;;;3.53;;
46036;SDS011;31769;49.304;8.428;2023-04-03T00:24:44;3.58;;;3.28;;
46036;SDS011;31769;49.304;8.428;2023-04-03T00:27:45;3.38;;;3.03;;
46036;SDS011;31769;49.304;8.428;2023-04-03T00:30:46;4.78;;;2.90;;
46036;SDS011;31769;49.304;8.428;2023-04-03T00:33:49;6.47;;;3.30;;
46036;SDS011;31769;49.304;8.428;2023-04-03T00:36:50;3.05;;;2.75;;
46036;SDS011;31769;49.304;8.428;2023-04-03T00:39:51;5.63;;;2.95;;
46036;SDS011;31769;49.304;8.428;2023-04-03T00:42:55;3.40;;;3.10;;
46036;SDS011;31769;49.304;8.428;2023-04-03T00:45:58;3.83;;;3.13;;
46036;SDS011;31769;49.304;8.428;2023-04-03T00:48:59;6.57;;;3.20;;
46036;SDS011;31769;49.304;8.428;2023-04-03T00:52:00;3.78;;;3.20;;
46036;SDS011;31769;49.304;8.428;2023-04-03T00:55:02;4.45;;;4.03;;
46036;SDS011;31769;49.304;8.428;2023-04-03T00:58:06;4.63;;;4.10;;
46036;SDS011;31769;49.304;8.428;2023-04-03T01:01:08;6.22;;;3.20;;
46036;SDS011;31769;49.304;8.428;2023-04-03T01:04:28;4.47;;;3.03;;
46036;SDS011;31769;49.304;8.428;2023-04-03T01:07:31;3.27;;;2.87;;
46036;SDS011;31769;49.304;8.428;2023-04-03T01:10:34;3.40;;;3.10;;
46036;SDS011;31769;49.304;8.428;2023-04-03T01:13:35;4.15;;;2.88;;
46036;SDS011;31769;49.304;8.428;2023-04-03T01:16:36;4.93;;;2.85;;
46036;SDS011;31769;49.304;8.428;2023-04-03T01:19:37;4.25;;;2.80;;
46036;SDS011;31769;49.304;8.428;2023-04-03T01:22:52;3.47;;;2.78;;
46036;SDS011;31769;49.304;8.428;2023-04-03T01:25:56;3.72;;;2.60;;
46036;SDS011;31769;49.304;8.428;2023-04-03T01:28:58;3.42;;;2.90;;
46036;SDS011;31769;49.304;8.428;2023-04-03T01:32:01;3.03;;;2.70;;
46036;SDS011;31769;49.304;8.428;2023-04-03T01:35:03;3.63;;;3.25;;
46036;SDS011;31769;49.304;8.428;2023-04-03T01:38:07;3.22;;;2.92;;
46036;SDS011;31769;49.304;8.428;2023-04-03T01:41:08;4.85;;;3.13;;
46036;SDS011;31769;49.304;8.428;2023-04-03T01:44:10;3.95;;;2.90;;
46036;SDS011;31769;49.304;8.428;2023-04-03T01:47:11;4.80;;;2.42;;
46036;SDS011;31769;49.304;8.428;2023-04-03T01:50:14;8.93;;;3.00;;
46036;SDS011;31769;49.304;8.428;2023-04-03T01:53:14;5.28;;;2.55;;
46036;SDS011;31769;49.304;8.428;2023-04-03T01:56:15;4.18;;;2.67;;
46036;SDS011;31769;49.304;8.428;2023-04-03T01:59:16;5.07;;;2.33;;
46036;SDS011;31769;49.304;8.428;2023-04-03T02:02:18;3.75;;;2.15;;
46036;SDS011;31769;49.304;8.428;2023-04-03T02:05:20;2.92;;;1.80;;
46036;SDS011;31769;49.304;8.428;2023-04-03T02:08:21;5.20;;;2.60;;
46036;SDS011;31769;49.304;8.428;2023-04-03T02:11:21;3.65;;;2.30;;
46036;SDS011;31769;49.304;8.428;2023-04-03T02:14:22;4.65;;;2.40;;
46036;SDS011;31769;49.304;8.428;2023-04-03T02:17:23;5.85;;;2.50;;
46036;SDS011;31769;49.304;8.428;2023-04-03T02:20:24;3.05;;;2.60;;
46036;SDS011;31769;49.304;8.428;2023-04-03T02:23:26;6.97;;;2.85;;
46036;SDS011;31769;49.304;8.428;2023-04-03T02:26:26;4.65;;;2.67;;
46036;SDS011;31769;49.304;8.428;2023-04-03T02:29:27;5.95;;;2.88;;
46036;SDS011;31769;49.304;8.428;2023-04-03T02:32:28;5.15;;;2.40;;
46036;SDS011;31769;49.304;8.428;2023-04-03T02:35:30;6.70;;;3.63;;
46036;SDS011;31769;49.304;8.428;2023-04-03T02:38:32;4.60;;;2.90;;
46036;SDS011;31769;49.304;8.428;2023-04-03T02:41:33;4.05;;;3.10;;
46036;SDS011;31769;49.304;8.428;2023-04-03T02:44:41;4.63;;;2.90;;
46036;SDS011;31769;49.304;8.428;2023-04-03T02:47:43;4.00;;;2.60;;
46036;SDS011;31769;49.304;8.428;2023-04-03T02:50:44;5.10;;;2.88;;
46036;SDS011;31769;49.304;8.428;2023-04-03T02:53:44;2.83;;;2.40;;
46036;SDS011;31769;49.304;8.428;2023-04-03T02:56:50;4.22;;;2.92;;
46036;SDS011;31769;49.304;8.428;2023-04-03T02:59:51;3.33;;;3.03;;
46036;SDS011;31769;49.304;8.428;2023-04-03T03:02:52;6.97;;;3.53;;
46036;SDS011;31769;49.304;8.428;2023-04-03T03:06:09;4.00;;;2.83;;
46036;SDS011;31769;49.304;8.428;2023-04-03T03:09:13;4.47;;;3.40;;
46036;SDS011;31769;49.304;8.428;2023-04-03T03:12:16;4.95;;;3.03;;
46036;SDS011;31769;49.304;8.428;2023-04-03T03:15:21;4.13;;;2.45;;
46036;SDS011;31769;49.304;8.428;2023-04-03T03:18:22;4.13;;;2.13;;
46036;SDS011;31769;49.304;8.428;2023-04-03T03:21:23;4.20;;;2.30;;
46036;SDS011;31769;49.304;8.428;2023-04-03T03:24:23;3.25;;;2.50;;
46036;SDS011;31769;49.304;8.428;2023-04-03T03:27:24;7.35;;;2.80;;
46036;SDS011;31769;49.304;8.428;2023-04-03T03:30:25;3.65;;;2.38;;
46036;SDS011;31769;49.304;8.428;2023-04-03T03:33:26;3.85;;;2.30;;
46036;SDS011;31769;49.304;8.428;2023-04-03T03:36:27;3.65;;;3.00;;
46036;SDS011;31769;49.304;8.428;2023-04-03T03:39:27;3.70;;;2.70;;
46036;SDS011;31769;49.304;8.428;2023-04-03T03:42:28;2.78;;;2.55;;
46036;SDS011;31769;49.304;8.428;2023-04-03T03:45:29;5.63;;;3.10;;
46036;SDS011;31769;49.304;8.428;2023-04-03T03:48:31;3.03;;;2.50;;
46036;SDS011;31769;49.304;8.428;2023-04-03T03:51:31;5.55;;;3.38;;
46036;SDS011;31769;49.304;8.428;2023-04-03T03:54:32;4.40;;;2.90;;
46036;SDS011;31769;49.304;8.428;2023-04-03T03:57:33;4.63;;;2.60;;
46036;SDS011;31769;49.304;8.428;2023-04-03T04:00:34;6.25;;;2.47;;
46036;SDS011;31769;49.304;8.428;2023-04-03T04:03:35;4.95;;;3.00;;
46036;SDS011;31769;49.304;8.428;2023-04-03T04:06:37;5.22;;;3.10;;
46036;SDS011;31769;49.304;8.428;2023-04-03T04:09:41;7.13;;;3.60;;
46036;SDS011;31769;49.304;8.428;2023-04-03T04:12:43;3.78;;;2.97;;
46036;SDS011;31769;49.304;8.428;2023-04-03T04:15:44;5.38;;;3.50;;
46036;SDS011;31769;49.304;8.428;2023-04-03T04:18:45;6.20;;;3.72;;
46036;SDS011;31769;49.304;8.428;2023-04-03T04:21:46;6.72;;;3.95;;
46036;SDS011;31769;49.304;8.428;2023-04-03T04:24:46;5.55;;;4.43;;
46036;SDS011;31769;49.304;8.428;2023-04-03T04:27:48;7.55;;;4.40;;
46036;SDS011;31769;49.304;8.428;2023-04-03T04:30:49;6.20;;;4.30;;
46036;SDS011;31769;49.304;8.428;2023-04-03T04:33:52;5.57;;;4.35;;
46036;SDS011;31769;49.304;8.428;2023-04-03T04:36:52;6.47;;;4.35;;
46036;SDS011;31769;49.304;8.428;2023-04-03T04:39:54;6.20;;;4.43;;
46036;SDS011;31769;49.304;8.428;2023-04-03T04:42:55;6.97;;;4.53;;
46036;SDS011;31769;49.304;8.428;2023-04-03T04:46:00;4.93;;;4.15;;
46036;SDS011;31769;49.304;8.428;2023-04-03T04:49:07;5.43;;;3.60;;
46036;SDS011;31769;49.304;8.428;2023-04-03T04:52:08;5.70;;;4.03;;
46036;SDS011;31769;49.304;8.428;2023-04-03T04:55:10;7.03;;;3.25;;
46036;SDS011;31769;49.304;8.428;2023-04-03T04:58:11;5.85;;;3.65;;
46036;SDS011;31769;49.304;8.428;2023-04-03T05:01:12;6.82;;;3.55;;
46036;SDS011;31769;49.304;8.428;2023-04-03T05:04:24;8.68;;;3.55;;
46036;SDS011;31769;49.304;8.428;2023-04-03T05:07:29;5.22;;;3.60;;
46036;SDS011;31769;49.304;8.428;2023-04-03T05:10:32;7.22;;;3.80;;
46036;SDS011;31769;49.304;8.428;2023-04-03T05:13:33;4.40;;;4.00;;
46036;SDS011;31769;49.304;8.428;2023-04-03T05:16:33;5.32;;;3.67;;
46036;SDS011;31769;49.304;8.428;2023-04-03T05:19:35;6.57;;;3.75;;
46036;SDS011;31769;49.304;8.428;2023-04-03T05:22:37;8.05;;;3.60;;
46036;SDS011;31769;49.304;8.428;2023-04-03T05:25:41;7.13;;;3.60;;
46036;SDS011;31769;49.304;8.428;2023-04-03T05:28:44;6.40;;;4.57;;
46036;SDS011;31769;49.304;8.428;2023-04-03T05:31:45;8.13;;;4.70;;
46036;SDS011;31769;49.304;8.428;2023-04-03T05:34:47;5.65;;;4.38;;
46036;SDS011;31769;49.304;8.428;2023-04-03T05:37:48;4.15;;;3.85;;
46036;SDS011;31769;49.304;8.428;2023-04-03T05:40:50;6.80;;;4.50;;
46036;SDS011;31769;49.304;8.428;2023-04-03T05:43:51;5.65;;;4.00;;
46036;SDS011;31769;49.304;8.428;2023-04-03T05:46:53;6.35;;;4.20;;
46036;SDS011;31769;49.304;8.428;2023-04-03T05:49:54;6.50;;;4.13;;
46036;SDS011;31769;49.304;8.428;2023-04-03T05:52:56;8.68;;;4.20;;
46036;SDS011;31769;49.304;8.428;2023-04-03T05:56:01;6.88;;;4.05;;
46036;SDS011;31769;49.304;8.428;2023-04-03T05:59:04;5.18;;;4.60;;
46036;SDS011;31769;49.304;8.428;2023-04-03T06:02:05;5.32;;;4.55;;
46036;SDS011;31769;49.304;8.428;2023-04-03T06:05:07;5.88;;;4.68;;
46036;SDS011;31769;49.304;8.428;2023-04-03T06:08:09;6.93;;;4.97;;
46036;SDS011;31769;49.304;8.428;2023-04-03T06:11:09;6.18;;;4.82;;
46036;SDS011;31769;49.304;8.428;2023-04-03T06:14:10;7.35;;;4.63;;
46036;SDS011;31769;49.304;8.428;2023-04-03T06:17:12;5.25;;;4.53;;
46036;SDS011;31769;49.304;8.428;2023-04-03T06:20:13;6.15;;;4.40;;
46036;SDS011;31769;49.304;8.428;2023-04-03T06:23:14;4.90;;;4.45;;
46036;SDS011;31769;49.304;8.428;2023-04-03T06:26:14;10.77;;;4.55;;
46036;SDS011;31769;49.304;8.428;2023-04-03T06:29:15;9.27;;;4.00;;
46036;SDS011;31769;49.304;8.428;2023-04-03T06:32:16;5.63;;;4.25;;
46036;SDS011;31769;49.304;8.428;2023-04-03T06:35:16;5.78;;;4.30;;
46036;SDS011;31769;49.304;8.428;2023-04-03T06:38:17;6.72;;;4.50;;
46036;SDS011;31769;49.304;8.428;2023-04-03T06:41:18;7.55;;;4.32;;
46036;SDS011;31769;49.304;8.428;2023-04-03T06:44:19;5.05;;;4.22;;
46036;SDS011;31769;49.304;8.428;2023-04-03T06:47:20;9.13;;;4.65;;
46036;SDS011;31769;49.304;8.428;2023-04-03T06:50:20;8.30;;;4.53;;
46036;SDS011;31769;49.304;8.428;2023-04-03T06:53:21;6.68;;;4.20;;
46036;SDS011;31769;49.304;8.428;2023-04-03T06:56:22;9.57;;;4.55;;
46036;SDS011;31769;49.304;8.428;2023-04-03T06:59:23;7.10;;;4.32;;
46036;SDS011;31769;49.304;8.428;2023-04-03T07:02:24;5.88;;;4.15;;
46036;SDS011;31769;49.304;8.428;2023-04-03T07:05:25;4.70;;;4.20;;
46036;SDS011;31769;49.304;8.428;2023-04-03T07:08:26;6.10;;;3.83;;
46036;SDS011;31769;49.304;8.428;2023-04-03T07:11:27;5.75;;;4.00;;
46036;SDS011;31769;49.304;8.428;2023-04-03T07:14:28;5.32;;;3.95;;
46036;SDS011;31769;49.304;8.428;2023-04-03T07:17:28;5.72;;;3.72;;
46036;SDS011;31769;49.304;8.428;2023-04-03T07:20:29;5.65;;;4.20;;
46036;SDS011;31769;49.304;8.428;2023-04-03T07:23:29;5.90;;;3.95;;
46036;SDS011;31769;49.304;8.428;2023-04-03T07:26:30;7.05;;;4.22;;
46036;SDS011;31769;49.304;8.428;2023-04-03T07:29:31;5.63;;;3.40;;
46036;SDS011;31769;49.304;8.428;2023-04-03T07:32:32;5.85;;;3.60;;
46036;SDS011;31769;49.304;8.428;2023-04-03T07:35:33;7.03;;;4.63;;
46036;SDS011;31769;49.304;8.428;2023-04-03T07:38:34;4.07;;;3.63;;
46036;SDS011;31769;49.304;8.428;2023-04-03T07:41:36;7.70;;;4.13;;
46036;SDS011;31769;49.304;8.428;2023-04-03T07:44:37;4.65;;;3.55;;
46036;SDS011;31769;49.304;8.428;2023-04-03T07:47:37;7.40;;;3.63;;
46036;SDS011;31769;49.304;8.428;2023-04-03T07:50:41;5.97;;;3.40;;
46036;SDS011;31769;49.304;8.428;2023-04-03T07:53:42;6.53;;;3.92;;
46036;SDS011;31769;49.304;8.428;2023-04-03T07:56:43;5.55;;;3.30;;
46036;SDS011;31769;49.304;8.428;2023-04-03T07:59:43;6.03;;;3.45;;
46036;SDS011;31769;49.304;8.428;2023-04-03T08:02:44;8.25;;;3.50;;
46036;SDS011;31769;49.304;8.428;2023-04-03T08:05:50;5.82;;;2.92;;
46036;SDS011;31769;49.304;8.428;2023-04-03T08:08:51;4.95;;;3.10;;
46036;SDS011;31769;49.304;8.428;2023-04-03T08:11:52;5.72;;;2.88;;
46036;SDS011;31769;49.304;8.428;2023-04-03T08:14:53;19.00;;;3.72;;
46036;SDS011;31769;49.304;8.428;2023-04-03T08:17:54;3.53;;;2.70;;
46036;SDS011;31769;49.304;8.428;2023-04-03T08:20:55;4.07;;;2.53;;
46036;SDS011;31769;49.304;8.428;2023-04-03T08:23:55;3.65;;;2.50;;
46036;SDS011;31769;49.304;8.428;2023-04-03T08:26:56;5.53;;;2.45;;
46036;SDS011;31769;49.304;8.428;2023-04-03T08:29:57;3.00;;;2.20;;
46036;SDS011;31769;49.304;8.428;2023-04-03T08:33:00;4.00;;;2.13;;
46036;SDS011;31769;49.304;8.428;2023-04-03T08:36:02;3.92;;;2.33;;
46036;SDS011;31769;49.304;8.428;2023-04-03T08:39:17;3.58;;;1.90;;
46036;SDS011;31769;49.304;8.428;2023-04-03T08:43:05;6.72;;;2.25;;
46036;SDS011;31769;49.304;8.428;2023-04-03T08:45:51;6.82;;;2.70;;
46036;SDS011;31769;49.304;8.428;2023-04-03T08:48:55;4.43;;;2.00;;
46036;SDS011;31769;49.304;8.428;2023-04-03T08:51:59;3.03;;;1.90;;
46036;SDS011;31769;49.304;8.428;2023-04-03T08:55:20;4.30;;;1.95;;
46036;SDS011;31769;49.304;8.428;2023-04-03T08:58:30;2.30;;;1.63;;
46036;SDS011;31769;49.304;8.428;2023-04-03T09:01:41;3.38;;;2.03;;
46036;SDS011;31769;49.304;8.428;2023-04-03T09:04:43;2.47;;;1.70;;
46036;SDS011;31769;49.304;8.428;2023-04-03T09:07:47;5.90;;;3.25;;
46036;SDS011;31769;49.304;8.428;2023-04-03T09:11:00;4.45;;;2.72;;
46036;SDS011;31769;49.304;8.428;2023-04-03T09:14:22;3.47;;;1.55;;
46036;SDS011;31769;49.304;8.428;2023-04-03T09:20:58;2.35;;;1.58;;
46036;SDS011;31769;49.304;8.428;2023-04-03T09:24:12;3.17;;;1.63;;
46036;SDS011;31769;49.304;8.428;2023-04-03T09:27:15;3.38;;;1.40;;
46036;SDS011;31769;49.304;8.428;2023-04-03T09:30:17;6.47;;;1.50;;
46036;SDS011;31769;49.304;8.428;2023-04-03T09:33:19;3.28;;;1.40;;
46036;SDS011;31769;49.304;8.428;2023-04-03T09:36:37;3.15;;;1.85;;
46036;SDS011;31769;49.304;8.428;2023-04-03T09:42:50;3.05;;;1.42;;
46036;SDS011;31769;49.304;8.428;2023-04-03T09:45:50;9.32;;;6.18;;
46036;SDS011;31769;49.304;8.428;2023-04-03T09:48:55;3.78;;;2.00;;
46036;SDS011;31769;49.304;8.428;2023-04-03T09:51:58;2.72;;;1.33;;
46036;SDS011;31769;49.304;8.428;2023-04-03T09:55:27;1.88;;;1.45;;
46036;SDS011;31769;49.304;8.428;2023-04-03T09:58:39;3.65;;;1.70;;
46036;SDS011;31769;49.304;8.428;2023-04-03T10:01:57;2.25;;;1.25;;
46036;SDS011;31769;49.304;8.428;2023-04-03T10:04:59;3.35;;;1.38;;
46036;SDS011;31769;49.304;8.428;2023-04-03T10:14:15;2.10;;;1.33;;
46036;SDS011;31769;49.304;8.428;2023-04-03T10:26:57;3.53;;;1.30;;
46036;SDS011;31769;49.304;8.428;2023-04-03T10:33:44;2.05;;;1.27;;
46036;SDS011;31769;49.304;8.428;2023-04-03T10:37:22;2.63;;;1.05;;
46036;SDS011;31769;49.304;8.428;2023-04-03T10:43:43;1.70;;;1.05;;
46036;SDS011;31769;49.304;8.428;2023-04-03T10:47:06;2.90;;;1.10;;
46036;SDS011;31769;49.304;8.428;2023-04-03T10:50:35;3.40;;;0.90;;
46036;SDS011;31769;49.304;8.428;2023-04-03T10:56:52;2.97;;;1.23;;
46036;SDS011;31769;49.304;8.428;2023-04-03T11:02:58;2.60;;;1.17;;
46036;SDS011;31769;49.304;8.428;2023-04-03T11:06:05;2.88;;;2.53;;
46036;SDS011;31769;49.304;8.428;2023-04-03T11:12:33;2.95;;;1.00;;
46036;SDS011;31769;49.304;8.428;2023-04-03T11:15:40;1.67;;;1.05;;
46036;SDS011;31769;49.304;8.428;2023-04-03T11:18:46;2.13;;;1.20;;
46036;SDS011;31769;49.304;8.428;2023-04-03T11:22:02;1.67;;;1.00;;
46036;SDS011;31769;49.304;8.428;2023-04-03T11:25:24;4.18;;;1.10;;
46036;SDS011;31769;49.304;8.428;2023-04-03T11:28:25;2.42;;;1.00;;
46036;SDS011;31769;49.304;8.428;2023-04-03T11:31:39;2.38;;;1.05;;
46036;SDS011;31769;49.304;8.428;2023-04-03T11:34:56;1.98;;;1.20;;
46036;SDS011;31769;49.304;8.428;2023-04-03T11:37:59;1.10;;;1.00;;
46036;SDS011;31769;49.304;8.428;2023-04-03T11:41:05;1.50;;;0.70;;
46036;SDS011;31769;49.304;8.428;2023-04-03T11:44:25;3.38;;;1.17;;
46036;SDS011;31769;49.304;8.428;2023-04-03T11:47:48;2.97;;;1.35;;
46036;SDS011;31769;49.304;8.428;2023-04-03T11:50:51;2.20;;;1.20;;
46036;SDS011;31769;49.304;8.428;2023-04-03T11:53:51;1.55;;;1.00;;
46036;SDS011;31769;49.304;8.428;2023-04-03T11:56:52;2.15;;;1.05;;
46036;SDS011;31769;49.304;8.428;2023-04-03T11:59:53;1.55;;;0.77;;
46036;SDS011;31769;49.304;8.428;2023-04-03T12:02:53;3.58;;;1.00;;
46036;SDS011;31769;49.304;8.428;2023-04-03T12:09:10;2.80;;;0.93;;
46036;SDS011;31769;49.304;8.428;2023-04-03T12:12:29;5.50;;;4.60;;
46036;SDS011;31769;49.304;8.428;2023-04-03T12:18:44;2.70;;;1.35;;
46036;SDS011;31769;49.304;8.428;2023-04-03T12:24:57;2.60;;;0.80;;
46036;SDS011;31769;49.304;8.428;2023-04-03T12:27:58;1.75;;;0.95;;
46036;SDS011;31769;49.304;8.428;2023-04-03T12:31:00;3.67;;;0.98;;
46036;SDS011;31769;49.304;8.428;2023-04-03T12:47:47;1.50;;;0.95;;
46036;SDS011;31769;49.304;8.428;2023-04-03T12:50:50;1.25;;;0.60;;
46036;SDS011;31769;49.304;8.428;2023-04-03T12:53:52;2.45;;;1.25;;
46036;SDS011;31769;49.304;8.428;2023-04-03T12:57:17;2.00;;;1.25;;
46036;SDS011;31769;49.304;8.428;2023-04-03T13:00:27;4.97;;;1.30;;
46036;SDS011;31769;49.304;8.428;2023-04-03T13:03:33;2.72;;;0.98;;
46036;SDS011;31769;49.304;8.428;2023-04-03T13:06:39;4.03;;;1.15;;
46036;SDS011;31769;49.304;8.428;2023-04-03T13:09:42;3.50;;;1.10;;
46036;SDS011;31769;49.304;8.428;2023-04-03T13:12:50;1.35;;;0.77;;
46036;SDS011;31769;49.304;8.428;2023-04-03T13:15:56;2.95;;;1.10;;
46036;SDS011;31769;49.304;8.428;2023-04-03T13:18:57;4.00;;;1.40;;
46036;SDS011;31769;49.304;8.428;2023-04-03T13:21:59;4.57;;;1.60;;
46036;SDS011;31769;49.304;8.428;2023-04-03T13:25:03;3.40;;;1.23;;
46036;SDS011;31769;49.304;8.428;2023-04-03T13:28:07;3.65;;;2.30;;
46036;SDS011;31769;49.304;8.428;2023-04-03T13:34:17;1.45;;;1.15;;
46036;SDS011;31769;49.304;8.428;2023-04-03T13:40:22;1.65;;;0.95;;
46036;SDS011;31769;49.304;8.428;2023-04-03T13:43:24;5.22;;;1.42;;
46036;SDS011;31769;49.304;8.428;2023-04-03T13:46:27;1.88;;;1.08;;
46036;SDS011;31769;49.304;8.428;2023-04-03T13:49:31;0.93;;;0.70;;
46036;SDS011;31769;49.304;8.428;2023-04-03T13:52:33;1.70;;;0.88;;
46036;SDS011;31769;49.304;8.428;2023-04-03T13:55:58;1.40;;;0.80;;
46036;SDS011;31769;49.304;8.428;2023-04-03T14:02:14;1.50;;;0.68;;
46036;SDS011;31769;49.304;8.428;2023-04-03T14:05:17;2.50;;;0.60;;
46036;SDS011;31769;49.304;8.428;2023-04-03T14:08:21;1.33;;;0.68;;
46036;SDS011;31769;49.304;8.428;2023-04-03T14:11:26;1.33;;;0.57;;
46036;SDS011;31769;49.304;8.428;2023-04-03T14:14:31;0.88;;;0.50;;
46036;SDS011;31769;49.304;8.428;2023-04-03T14:17:33;2.00;;;0.47;;
46036;SDS011;31769;49.304;8.428;2023-04-03T14:20:35;1.05;;;0.20;;
46036;SDS011;31769;49.304;8.428;2023-04-03T14:23:35;1.45;;;0.40;;
46036;SDS011;31769;49.304;8.428;2023-04-03T14:26:36;1.55;;;0.40;;
46036;SDS011;31769;49.304;8.428;2023-04-03T14:29:37;1.73;;;0.40;;
46036;SDS011;31769;49.304;8.428;2023-04-03T14:32:37;1.35;;;0.35;;
46036;SDS011;31769;49.304;8.428;2023-04-03T14:35:38;1.10;;;0.95;;
46036;SDS011;31769;49.304;8.428;2023-04-03T14:38:39;2.45;;;1.40;;
46036;SDS011;31769;49.304;8.428;2023-04-03T14:41:41;2.60;;;0.82;;
46036;SDS011;31769;49.304;8.428;2023-04-03T14:44:43;0.80;;;0.50;;
46036;SDS011;31769;49.304;8.428;2023-04-03T14:47:44;2.50;;;0.60;;
46036;SDS011;31769;49.304;8.428;2023-04-03T14:50:48;3.28;;;0.93;;
46036;SDS011;31769;49.304;8.428;2023-04-03T14:53:49;2.15;;;0.98;;
46036;SDS011;31769;49.304;8.428;2023-04-03T14:56:51;1.80;;;0.85;;
46036;SDS011;31769;49.304;8.428;2023-04-03T14:59:52;1.80;;;0.80;;
46036;SDS011;31769;49.304;8.428;2023-04-03T15:02:53;1.88;;;0.63;;
46036;SDS011;31769;49.304;8.428;2023-04-03T15:05:54;1.50;;;0.60;;
46036;SDS011;31769;49.304;8.428;2023-04-03T15:08:55;2.38;;;0.75;;
46036;SDS011;31769;49.304;8.428;2023-04-03T15:11:56;1.45;;;0.40;;
46036;SDS011;31769;49.304;8.428;2023-04-03T15:14:56;2.22;;;0.50;;
46036;SDS011;31769;49.304;8.428;2023-04-03T15:17:57;1.17;;;0.60;;
46036;SDS011;31769;49.304;8.428;2023-04-03T15:20:58;2.13;;;0.50;;
46036;SDS011;31769;49.304;8.428;2023-04-03T15:23:58;2.50;;;0.40;;
46036;SDS011;31769;49.304;8.428;2023-04-03T15:26:59;1.10;;;0.40;;
46036;SDS011;31769;49.304;8.428;2023-04-03T15:30:01;1.90;;;0.40;;
46036;SDS011;31769;49.304;8.428;2023-04-03T15:33:04;1.45;;;0.40;;
46036;SDS011;31769;49.304;8.428;2023-04-03T15:36:04;1.30;;;0.30;;
46036;SDS011;31769;49.304;8.428;2023-04-03T15:39:05;1.35;;;0.60;;
46036;SDS011;31769;49.304;8.428;2023-04-03T15:42:06;1.73;;;0.60;;
46036;SDS011;31769;49.304;8.428;2023-04-03T15:45:07;0.68;;;0.50;;
46036;SDS011;31769;49.304;8.428;2023-04-03T15:48:09;3.05;;;2.42;;
46036;SDS011;31769;49.304;8.428;2023-04-03T15:51:10;1.63;;;0.88;;
46036;SDS011;31769;49.304;8.428;2023-04-03T15:54:11;1.75;;;0.65;;
46036;SDS011;31769;49.304;8.428;2023-04-03T15:57:11;1.65;;;0.30;;
46036;SDS011;31769;49.304;8.428;2023-04-03T16:00:12;0.85;;;0.50;;
46036;SDS011;31769;49.304;8.428;2023-04-03T16:03:17;1.20;;;0.20;;
46036;SDS011;31769;49.304;8.428;2023-04-03T16:06:19;0.70;;;0.45;;
46036;SDS011;31769;49.304;8.428;2023-04-03T16:09:20;0.85;;;0.55;;
46036;SDS011;31769;49.304;8.428;2023-04-03T16:12:21;0.93;;;0.35;;
46036;SDS011;31769;49.304;8.428;2023-04-03T16:15:22;1.45;;;0.50;;
46036;SDS011;31769;49.304;8.428;2023-04-03T16:18:24;1.80;;;0.43;;
46036;SDS011;31769;49.304;8.428;2023-04-03T16:21:24;1.52;;;0.22;;
46036;SDS011;31769;49.304;8.428;2023-04-03T16:24:26;1.63;;;0.50;;
46036;SDS011;31769;49.304;8.428;2023-04-03T16:27:27;1.05;;;0.40;;
46036;SDS011;31769;49.304;8.428;2023-04-03T16:30:30;1.67;;;0.60;;
46036;SDS011;31769;49.304;8.428;2023-04-03T16:33:30;1.13;;;0.75;;
46036;SDS011;31769;49.304;8.428;2023-04-03T16:36:31;1.13;;;0.50;;
46036;SDS011;31769;49.304;8.428;2023-04-03T16:39:32;3.13;;;0.50;;
46036;SDS011;31769;49.304;8.428;2023-04-03T16:42:32;0.80;;;0.50;;
46036;SDS011;31769;49.304;8.428;2023-04-03T16:45:33;0.80;;;0.55;;
46036;SDS011;31769;49.304;8.428;2023-04-03T16:48:34;4.53;;;1.50;;
46036;SDS011;31769;49.304;8.428;2023-04-03T16:51:35;2.13;;;0.73;;
46036;SDS011;31769;49.304;8.428;2023-04-03T16:54:35;3.33;;;0.30;;
46036;SDS011;31769;49.304;8.428;2023-04-03T16:57:36;2.53;;;2.17;;
46036;SDS011;31769;49.304;8.428;2023-04-03T17:00:37;1.35;;;0.45;;
46036;SDS011;31769;49.304;8.428;2023-04-03T17:03:38;1.55;;;0.60;;
46036;SDS011;31769;49.304;8.428;2023-04-03T17:06:39;1.55;;;0.50;;
46036;SDS011;31769;49.304;8.428;2023-04-03T17:09:40;2.03;;;0.28;;
46036;SDS011;31769;49.304;8.428;2023-04-03T17:12:40;1.85;;;0.50;;
46036;SDS011;31769;49.304;8.428;2023-04-03T17:15:41;1.50;;;0.40;;
46036;SDS011;31769;49.304;8.428;2023-04-03T17:18:42;2.08;;;0.55;;
46036;SDS011;31769;49.304;8.428;2023-04-03T17:21:43;2.15;;;0.45;;
46036;SDS011;31769;49.304;8.428;2023-04-03T17:24:45;1.58;;;0.55;;
46036;SDS011;31769;49.304;8.428;2023-04-03T17:27:46;3.63;;;0.50;;
46036;SDS011;31769;49.304;8.428;2023-04-03T17:30:47;0.93;;;0.60;;
46036;SDS011;31769;49.304;8.428;2023-04-03T17:33:47;1.52;;;0.47;;
46036;SDS011;31769;49.304;8.428;2023-04-03T17:36:48;1.02;;;0.47;;
46036;SDS011;31769;49.304;8.428;2023-04-03T17:39:49;3.15;;;0.95;;
46036;SDS011;31769;49.304;8.428;2023-04-03T17:42:50;1.55;;;0.90;;
46036;SDS011;31769;49.304;8.428;2023-04-03T17:45:51;1.38;;;0.82;;
46036;SDS011;31769;49.304;8.428;2023-04-03T17:48:52;1.13;;;0.80;;
46036;SDS011;31769;49.304;8.428;2023-04-03T17:51:53;2.55;;;1.30;;
46036;SDS011;31769;49.304;8.428;2023-04-03T17:54:53;2.17;;;1.00;;
46036;SDS011;31769;49.304;8.428;2023-04-03T17:57:54;5.10;;;3.30;;
46036;SDS011;31769;49.304;8.428;2023-04-03T18:00:55;3.03;;;2.17;;
46036;SDS011;31769;49.304;8.428;2023-04-03T18:03:56;1.90;;;1.75;;
46036;SDS011;31769;49.304;8.428;2023-04-03T18:06:58;3.60;;;1.60;;
46036;SDS011;31769;49.304;8.428;2023-04-03T18:10:01;3.28;;;1.60;;
46036;SDS011;31769;49.304;8.428;2023-04-03T18:13:05;1.67;;;1.10;;
46036;SDS011;31769;49.304;8.428;2023-04-03T18:16:07;2.67;;;1.83;;
46036;SDS011;31769;49.304;8.428;2023-04-03T18:19:10;4.72;;;2.20;;
46036;SDS011;31769;49.304;8.428;2023-04-03T18:22:12;6.28;;;3.28;;
46036;SDS011;31769;49.304;8.428;2023-04-03T18:25:16;2.58;;;1.63;;
46036;SDS011;31769;49.304;8.428;2023-04-03T18:28:17;3.97;;;1.70;;
46036;SDS011;31769;49.304;8.428;2023-04-03T18:31:18;4.13;;;1.40;;
46036;SDS011;31769;49.304;8.428;2023-04-03T18:34:19;5.05;;;1.98;;
46036;SDS011;31769;49.304;8.428;2023-04-03T18:37:20;4.15;;;2.05;;
46036;SDS011;31769;49.304;8.428;2023-04-03T18:40:23;6.38;;;2.60;;
46036;SDS011;31769;49.304;8.428;2023-04-03T18:43:24;4.07;;;2.15;;
46036;SDS011;31769;49.304;8.428;2023-04-03T18:46:25;5.45;;;2.20;;
46036;SDS011;31769;49.304;8.428;2023-04-03T18:49:27;3.58;;;1.58;;
46036;SDS011;31769;49.304;8.428;2023-04-03T18:52:30;2.67;;;1.52;;
46036;SDS011;31769;49.304;8.428;2023-04-03T18:55:30;4.20;;;1.65;;
46036;SDS011;31769;49.304;8.428;2023-04-03T18:58:31;3.00;;;2.05;;
46036;SDS011;31769;49.304;8.428;2023-04-03T19:01:32;4.60;;;2.05;;
46036;SDS011;31769;49.304;8.428;2023-04-03T19:04:33;3.38;;;2.30;;
46036;SDS011;31769;49.304;8.428;2023-04-03T19:07:35;3.92;;;2.22;;
46036;SDS011;31769;49.304;8.428;2023-04-03T19:10:35;7.40;;;2.28;;
46036;SDS011;31769;49.304;8.428;2023-04-03T19:13:36;5.70;;;1.90;;
46036;SDS011;31769;49.304;8.428;2023-04-03T19:16:37;2.70;;;1.90;;
46036;SDS011;31769;49.304;8.428;2023-04-03T19:19:38;3.47;;;2.10;;
46036;SDS011;31769;49.304;8.428;2023-04-03T19:22:39;4.18;;;2.05;;
46036;SDS011;31769;49.304;8.428;2023-04-03T19:25:40;5.03;;;2.30;;
46036;SDS011;31769;49.304;8.428;2023-04-03T19:28:40;2.63;;;2.03;;
46036;SDS011;31769;49.304;8.428;2023-04-03T19:31:41;5.25;;;2.45;;
46036;SDS011;31769;49.304;8.428;2023-04-03T19:34:42;3.28;;;2.08;;